createdAt,value
2022-12-28T00:01:26.152Z,1.70
2022-12-28T00:03:54.194Z,1.70
2022-12-28T00:06:23.567Z,1.70
2022-12-28T00:08:57.003Z,1.70
2022-12-28T00:11:28.460Z,1.80
2022-12-28T00:14:00.759Z,1.80
2022-12-28T00:16:31.047Z,1.80
2022-12-28T00:19:00.341Z,1.80
2022-12-28T00:21:28.191Z,1.80
2022-12-28T00:23:58.396Z,1.70
2022-12-28T00:26:27.488Z,1.70
2022-12-28T00:28:59.948Z,1.80
2022-12-28T00:31:30.833Z,1.80
2022-12-28T00:33:58.145Z,1.80
2022-12-28T00:37:08.885Z,1.80
2022-12-28T00:39:13.093Z,1.80
2022-12-28T00:41:40.240Z,1.80
2022-12-28T00:44:07.430Z,1.80
2022-12-28T00:46:34.714Z,1.80
2022-12-28T00:49:01.918Z,1.80
2022-12-28T00:51:29.132Z,1.80
2022-12-28T00:53:56.391Z,1.80
2022-12-28T00:56:23.726Z,1.80
2022-12-28T00:58:51.107Z,1.80
2022-12-28T01:01:21.509Z,1.80
2022-12-28T01:03:48.775Z,1.80
2022-12-28T01:06:18.610Z,1.80
2022-12-28T01:08:45.906Z,1.80
2022-12-28T01:11:24.163Z,1.70
2022-12-28T01:13:52.609Z,1.80
2022-12-28T01:16:21.679Z,1.80
2022-12-28T01:18:51.988Z,1.80
2022-12-28T01:21:26.184Z,1.80
2022-12-28T01:23:55.631Z,1.80
2022-12-28T01:26:23.085Z,1.80
2022-12-28T01:28:50.608Z,1.80
2022-12-28T01:31:19.891Z,1.80
2022-12-28T01:33:47.566Z,1.80
2022-12-28T01:36:17.454Z,1.80
2022-12-28T01:38:46.270Z,1.80
2022-12-28T01:41:17.574Z,1.80
2022-12-28T01:44:07.671Z,1.80
2022-12-28T01:47:01.206Z,1.80
2022-12-28T01:49:33.301Z,1.80
2022-12-28T01:52:00.388Z,1.80
2022-12-28T01:54:30.004Z,1.80
2022-12-28T01:56:58.067Z,1.80
2022-12-28T01:59:28.651Z,1.80
2022-12-28T02:01:56.111Z,1.80
2022-12-28T02:04:25.688Z,1.90
2022-12-28T02:06:54.613Z,1.80
2022-12-28T02:09:29.545Z,1.80
2022-12-28T02:11:57.166Z,1.80
2022-12-28T02:14:24.823Z,1.80
2022-12-28T02:16:53.556Z,1.80
2022-12-28T02:19:33.569Z,1.80
2022-12-28T02:22:12.528Z,1.90
2022-12-28T02:25:13.077Z,1.90
2022-12-28T02:27:43.020Z,1.90
2022-12-28T02:30:12.744Z,1.90
2022-12-28T02:32:49.763Z,1.90
2022-12-28T02:35:47.159Z,1.90
2022-12-28T02:38:42.236Z,1.90
2022-12-28T02:41:26.507Z,1.90
2022-12-28T02:43:54.397Z,1.90
2022-12-28T02:46:47.277Z,1.90
2022-12-28T02:49:48.026Z,1.90
2022-12-28T02:52:33.477Z,1.90
2022-12-28T02:56:02.372Z,1.90
2022-12-28T02:58:56.187Z,1.90
2022-12-28T03:01:41.428Z,1.90
2022-12-28T03:04:35.900Z,1.90
2022-12-28T03:07:44.505Z,1.90
2022-12-28T03:10:15.849Z,1.90
2022-12-28T03:12:48.805Z,1.90
2022-12-28T03:15:30.400Z,1.90
2022-12-28T03:18:33.644Z,1.80
2022-12-28T03:21:25.564Z,1.80
2022-12-28T03:24:13.402Z,1.80
2022-12-28T03:27:03.109Z,1.80
2022-12-28T03:29:50.904Z,1.80
2022-12-28T03:32:18.135Z,1.80
2022-12-28T03:34:45.314Z,1.80
2022-12-28T03:37:15.156Z,1.80
2022-12-28T03:39:48.324Z,1.80
2022-12-28T03:42:46.698Z,1.80
2022-12-28T03:45:47.681Z,1.90
2022-12-28T03:48:16.814Z,1.80
2022-12-28T03:50:48.750Z,1.90
2022-12-28T03:53:23.487Z,1.90
2022-12-28T03:55:50.705Z,1.90
2022-12-28T03:58:18.335Z,1.90
2022-12-28T04:00:45.439Z,1.80
2022-12-28T04:03:12.692Z,1.90
2022-12-28T04:05:39.884Z,1.80
2022-12-28T04:08:07.061Z,1.80
2022-12-28T04:10:34.221Z,1.80
2022-12-28T04:13:01.294Z,1.80
2022-12-28T04:15:28.460Z,1.80
2022-12-28T04:17:55.587Z,1.80
2022-12-28T04:20:22.793Z,1.80
2022-12-28T04:22:50.026Z,1.70
2022-12-28T04:25:17.167Z,1.70
2022-12-28T04:27:44.412Z,1.70
2022-12-28T04:30:11.785Z,1.70
2022-12-28T04:32:38.995Z,1.60
2022-12-28T04:35:06.527Z,1.60
2022-12-28T04:37:37.234Z,1.60
2022-12-28T04:40:05.037Z,1.50
2022-12-28T04:42:32.924Z,1.50
2022-12-28T04:45:00.116Z,1.50
2022-12-28T04:47:28.223Z,1.40
2022-12-28T04:49:55.333Z,1.40
2022-12-28T04:52:22.587Z,1.30
2022-12-28T04:54:49.828Z,1.20
2022-12-28T04:57:17.003Z,1.20
2022-12-28T04:59:44.155Z,1.10
2022-12-28T05:02:11.522Z,1.10
2022-12-28T05:04:38.759Z,1.00
2022-12-28T05:07:05.974Z,1.00
2022-12-28T05:09:33.158Z,0.90
2022-12-28T05:12:00.392Z,0.90
2022-12-28T05:14:29.894Z,0.80
2022-12-28T05:17:00.808Z,0.80
2022-12-28T05:19:28.298Z,0.70
2022-12-28T05:21:55.464Z,0.70
2022-12-28T05:24:22.602Z,0.60
2022-12-28T05:26:49.836Z,0.60
2022-12-28T05:29:16.952Z,0.50
2022-12-28T05:31:44.143Z,0.50
2022-12-28T05:34:11.367Z,0.50
2022-12-28T05:36:40.933Z,0.50
2022-12-28T05:39:08.648Z,0.50
2022-12-28T05:41:35.843Z,0.50
2022-12-28T05:44:03.106Z,0.50
2022-12-28T05:46:34.259Z,0.50
2022-12-28T05:49:02.343Z,0.50
2022-12-28T05:51:31.718Z,0.50
2022-12-28T05:53:59.955Z,0.40
2022-12-28T05:56:29.644Z,0.40
2022-12-28T05:58:59.412Z,0.30
2022-12-28T06:01:29.224Z,0.30
2022-12-28T06:04:02.355Z,0.30
2022-12-28T06:06:30.842Z,0.30
2022-12-28T06:08:58.177Z,0.20
2022-12-28T06:11:27.511Z,0.20
2022-12-28T06:13:55.183Z,0.20
2022-12-28T06:16:25.345Z,0.10
2022-12-28T06:18:52.954Z,0.10
2022-12-28T06:21:24.652Z,0.10
2022-12-28T06:23:51.979Z,0.10
2022-12-28T06:26:21.690Z,0.00
2022-12-28T06:28:49.692Z,0.00
2022-12-28T06:31:26.184Z,0.00
2022-12-28T06:33:55.100Z,0.00
2022-12-28T06:36:27.892Z,0.00
2022-12-28T06:38:57.214Z,0.00
2022-12-28T06:41:25.349Z,0.00
2022-12-28T06:43:53.564Z,0.00
2022-12-28T06:46:22.619Z,0.00
2022-12-28T06:48:51.251Z,0.00
2022-12-28T06:51:21.344Z,0.10
2022-12-28T06:53:50.132Z,0.10
2022-12-28T06:56:23.163Z,0.20
2022-12-28T06:58:54.466Z,0.20
2022-12-28T07:01:28.291Z,0.20
2022-12-28T07:03:57.806Z,0.30
2022-12-28T07:06:27.963Z,0.30
2022-12-28T07:09:03.320Z,0.30
2022-12-28T07:11:31.203Z,0.40
2022-12-28T07:13:58.791Z,0.40
2022-12-28T07:18:55.470Z,0.60
2022-12-28T07:21:28.929Z,0.60
2022-12-28T07:23:56.731Z,0.60
2022-12-28T07:26:27.523Z,0.70
2022-12-28T07:28:56.454Z,0.70
2022-12-28T07:31:29.247Z,0.80
2022-12-28T07:33:57.688Z,0.80
2022-12-28T07:36:26.559Z,0.90
2022-12-28T07:38:54.148Z,1.00
2022-12-28T07:41:26.861Z,1.00
2022-12-28T07:43:54.193Z,1.10
2022-12-28T07:46:27.620Z,1.10
2022-12-28T07:48:55.055Z,1.10
2022-12-28T07:51:31.729Z,1.20
2022-12-28T07:54:00.057Z,1.20
2022-12-28T07:56:28.954Z,1.20
2022-12-28T07:58:59.054Z,1.30
2022-12-28T08:01:29.594Z,1.30
2022-12-28T08:03:58.012Z,1.40
2022-12-28T08:06:26.405Z,1.40
2022-12-28T08:08:55.884Z,1.40
2022-12-28T08:11:25.646Z,1.40
2022-12-28T08:13:55.259Z,1.40
2022-12-28T08:16:24.684Z,1.40
2022-12-28T08:18:51.939Z,1.40
2022-12-28T08:21:34.330Z,1.50
2022-12-28T08:24:02.496Z,1.50
2022-12-28T08:26:35.609Z,1.50
2022-12-28T08:29:06.180Z,1.60
2022-12-28T08:31:35.266Z,1.60
2022-12-28T08:34:05.224Z,1.60
2022-12-28T08:36:32.809Z,1.70
2022-12-28T08:39:01.634Z,1.70
2022-12-28T08:41:30.493Z,1.70
2022-12-28T08:43:58.660Z,1.80
2022-12-28T08:46:28.472Z,1.80
2022-12-28T08:48:57.466Z,1.80
2022-12-28T08:51:32.653Z,1.80
2022-12-28T08:54:00.712Z,1.90
2022-12-28T08:56:31.094Z,1.90
2022-12-28T08:59:00.148Z,1.90
2022-12-28T09:01:29.942Z,2.00
2022-12-28T09:03:59.751Z,2.00
2022-12-28T09:06:38.767Z,2.10
2022-12-28T09:09:08.301Z,2.10
2022-12-28T09:11:37.730Z,2.10
2022-12-28T09:14:06.832Z,2.20
2022-12-28T09:16:34.320Z,2.20
2022-12-28T09:19:04.326Z,2.20
2022-12-28T09:21:34.354Z,2.20
2022-12-28T09:24:01.735Z,2.20
2022-12-28T09:26:35.122Z,2.20
2022-12-28T09:29:05.769Z,2.20
2022-12-28T09:31:33.697Z,2.20
2022-12-28T09:36:48.647Z,2.10
2022-12-28T09:39:18.199Z,2.10
2022-12-28T09:41:57.925Z,2.10
2022-12-28T09:44:37.064Z,2.00
2022-12-28T09:47:12.725Z,2.00
2022-12-28T09:49:45.580Z,2.00
2022-12-28T09:52:15.726Z,1.90
2022-12-28T09:54:42.928Z,2.00
2022-12-28T09:57:18.778Z,1.90
2022-12-28T09:59:49.948Z,2.00
2022-12-28T10:02:30.122Z,2.00
2022-12-28T10:04:57.481Z,2.00
2022-12-28T10:07:25.016Z,2.00
2022-12-28T10:09:52.340Z,2.00
2022-12-28T10:12:24.864Z,2.00
2022-12-28T10:14:53.703Z,2.00
2022-12-28T10:17:27.587Z,2.00
2022-12-28T10:19:58.304Z,2.00
2022-12-28T10:22:31.629Z,2.00
2022-12-28T10:24:58.934Z,2.10
2022-12-28T10:27:31.259Z,2.10
2022-12-28T10:30:02.641Z,2.00
2022-12-28T10:32:51.580Z,2.10
2022-12-28T10:35:29.474Z,2.10
2022-12-28T10:38:20.237Z,2.10
2022-12-28T10:40:54.611Z,2.10
2022-12-28T10:43:22.607Z,2.20
2022-12-28T10:45:51.196Z,2.20
2022-12-28T10:48:39.457Z,2.30
2022-12-28T10:51:15.052Z,2.30
2022-12-28T10:53:42.169Z,2.20
2022-12-28T10:56:15.327Z,2.20
2022-12-28T10:58:47.142Z,2.20
2022-12-28T11:01:14.317Z,2.10
2022-12-28T11:03:58.838Z,2.10
2022-12-28T11:06:28.688Z,2.10
2022-12-28T11:09:17.460Z,2.00
2022-12-28T11:11:47.161Z,2.00
2022-12-28T11:14:36.907Z,2.00
2022-12-28T11:17:19.335Z,1.90
2022-12-28T11:19:49.538Z,1.90
2022-12-28T11:22:23.525Z,1.90
2022-12-28T11:24:50.956Z,1.90
2022-12-28T11:27:21.582Z,1.90
2022-12-28T11:29:50.624Z,1.90
2022-12-28T11:32:43.376Z,1.90
2022-12-28T11:35:21.765Z,1.90
2022-12-28T11:37:54.054Z,1.90
2022-12-28T11:40:52.766Z,1.90
2022-12-28T11:43:33.127Z,1.90
2022-12-28T11:46:01.978Z,1.90
2022-12-28T11:48:44.089Z,1.90
2022-12-28T11:51:26.020Z,1.90
2022-12-28T11:53:59.126Z,1.90
2022-12-28T11:56:49.585Z,1.80
2022-12-28T11:59:34.420Z,1.80
2022-12-28T12:02:24.419Z,1.70
2022-12-28T12:04:51.597Z,1.70
2022-12-28T12:07:18.613Z,1.70
2022-12-28T12:09:48.551Z,1.70
2022-12-28T12:12:18.114Z,1.60
2022-12-28T12:15:34.986Z,1.60
2022-12-28T12:18:07.789Z,1.60
2022-12-28T12:20:54.866Z,1.50
2022-12-28T12:23:43.646Z,1.50
2022-12-28T12:26:30.960Z,1.50
2022-12-28T12:29:12.737Z,1.50
2022-12-28T12:32:05.687Z,1.50
2022-12-28T12:34:44.554Z,1.50
2022-12-28T12:37:36.155Z,1.50
2022-12-28T12:40:34.036Z,1.50
2022-12-28T12:43:27.497Z,1.50
2022-12-28T12:46:14.796Z,1.50
2022-12-28T12:48:59.918Z,1.50
2022-12-28T12:51:42.127Z,1.50
2022-12-28T12:54:27.946Z,1.50
2022-12-28T12:56:59.780Z,1.50
2022-12-28T12:59:48.096Z,1.50
2022-12-28T13:02:52.779Z,1.50
2022-12-28T13:05:24.647Z,1.50
2022-12-28T13:07:55.461Z,1.50
2022-12-28T13:10:38.133Z,1.50
2022-12-28T13:13:05.998Z,1.50
2022-12-28T13:15:34.528Z,1.50
2022-12-28T13:18:44.207Z,1.50
2022-12-28T13:21:12.271Z,1.40
2022-12-28T13:23:44.997Z,1.40
2022-12-28T13:26:14.721Z,1.40
2022-12-28T13:29:01.652Z,1.40
2022-12-28T13:31:35.353Z,1.40
2022-12-28T13:34:05.950Z,1.40
2022-12-28T13:36:33.012Z,1.40
2022-12-28T13:39:13.409Z,1.40
2022-12-28T13:42:06.329Z,1.40
2022-12-28T13:44:50.376Z,1.40
2022-12-28T13:47:47.877Z,1.30
2022-12-28T13:50:17.559Z,1.30
2022-12-28T13:53:05.090Z,1.30
2022-12-28T13:55:37.734Z,1.30
2022-12-28T13:58:12.408Z,1.30
2022-12-28T14:00:43.350Z,1.30
2022-12-28T14:03:12.678Z,1.30
2022-12-28T14:05:48.076Z,1.30
2022-12-28T14:08:17.145Z,1.30
2022-12-28T14:10:47.190Z,1.30
2022-12-28T14:13:15.248Z,1.30
2022-12-28T14:15:43.359Z,1.30
2022-12-28T14:18:17.650Z,1.30
2022-12-28T14:20:53.473Z,1.30
2022-12-28T14:23:26.785Z,1.30
2022-12-28T14:25:55.943Z,1.30
2022-12-28T14:28:47.887Z,1.30
2022-12-28T14:31:22.034Z,1.30
2022-12-28T14:34:04.408Z,1.30
2022-12-28T14:36:49.528Z,1.30
2022-12-28T14:39:38.268Z,1.20
2022-12-28T14:42:17.402Z,1.20
2022-12-28T14:44:44.788Z,1.20
2022-12-28T14:47:35.147Z,1.30
2022-12-28T14:50:15.302Z,1.20
2022-12-28T14:52:48.034Z,1.30
2022-12-28T14:55:53.685Z,1.20
2022-12-28T14:58:25.966Z,1.20
2022-12-28T15:01:09.685Z,1.20
2022-12-28T15:04:01.574Z,1.20
2022-12-28T15:06:32.582Z,1.30
2022-12-28T15:09:01.476Z,1.20
2022-12-28T15:11:31.415Z,1.20
2022-12-28T15:13:58.524Z,1.20
2022-12-28T15:16:25.799Z,1.20
2022-12-28T15:18:53.295Z,1.20
2022-12-28T15:21:23.485Z,1.20
2022-12-28T15:23:52.140Z,1.20
2022-12-28T15:26:20.655Z,1.20
2022-12-28T15:28:47.747Z,1.20
2022-12-28T15:31:20.696Z,1.20
2022-12-28T15:33:48.624Z,1.20
2022-12-28T15:36:18.826Z,1.20
2022-12-28T15:38:47.633Z,1.20
2022-12-28T15:41:34.665Z,1.20
2022-12-28T15:44:02.135Z,1.20
2022-12-28T15:46:29.331Z,1.20
2022-12-28T15:48:56.637Z,1.20
2022-12-28T15:51:24.088Z,1.20
2022-12-28T15:53:51.242Z,1.20
2022-12-28T15:56:23.461Z,1.20
2022-12-28T15:58:54.010Z,1.30
2022-12-28T16:01:21.829Z,1.20
2022-12-28T16:03:50.641Z,1.20
2022-12-28T16:06:21.827Z,1.20
2022-12-28T16:08:49.333Z,1.20
2022-12-28T16:11:19.069Z,1.20
2022-12-28T16:13:55.323Z,1.20
2022-12-28T16:16:23.486Z,1.20
2022-12-28T16:18:51.780Z,1.20
2022-12-28T16:21:18.977Z,1.20
2022-12-28T16:23:46.553Z,1.20
2022-12-28T16:26:14.307Z,1.20
2022-12-28T16:28:41.715Z,1.10
2022-12-28T16:31:20.030Z,1.10
2022-12-28T16:33:47.186Z,1.10
2022-12-28T16:36:16.411Z,1.10
2022-12-28T16:38:43.608Z,1.10
2022-12-28T16:41:12.568Z,1.00
2022-12-28T16:43:39.650Z,1.00
2022-12-28T16:46:08.844Z,1.10
2022-12-28T16:48:37.160Z,1.00
2022-12-28T16:51:04.805Z,1.00
2022-12-28T16:53:33.624Z,1.00
2022-12-28T16:56:01.709Z,1.00
2022-12-28T16:58:29.899Z,1.00
2022-12-28T17:00:57.760Z,1.00
2022-12-28T17:03:25.657Z,1.00
2022-12-28T17:05:53.363Z,1.00
2022-12-28T17:08:20.458Z,1.00
2022-12-28T17:10:47.657Z,1.00
2022-12-28T17:13:16.363Z,1.00
2022-12-28T17:15:45.955Z,1.00
2022-12-28T17:18:14.247Z,1.00
2022-12-28T17:20:41.585Z,1.00
2022-12-28T17:23:09.166Z,1.00
2022-12-28T17:25:36.547Z,0.90
2022-12-28T17:28:03.896Z,0.90
2022-12-28T17:30:31.128Z,1.00
2022-12-28T17:32:58.363Z,1.00
2022-12-28T17:35:25.738Z,0.90
2022-12-28T17:37:52.961Z,0.90
2022-12-28T17:40:20.319Z,0.90
2022-12-28T17:42:47.553Z,0.90
2022-12-28T17:45:14.799Z,0.90
2022-12-28T17:47:42.101Z,0.90
2022-12-28T17:50:09.408Z,0.90
2022-12-28T17:52:36.677Z,0.80
2022-12-28T17:55:04.512Z,0.90
2022-12-28T17:57:35.456Z,0.90
2022-12-28T18:00:06.769Z,0.80
2022-12-28T18:02:34.141Z,0.80
2022-12-28T18:05:01.317Z,0.80
2022-12-28T18:07:28.479Z,0.80
2022-12-28T18:09:55.696Z,0.80
2022-12-28T18:12:22.856Z,0.80
2022-12-28T18:14:50.483Z,0.80
2022-12-28T18:17:23.412Z,0.80
2022-12-28T18:19:53.737Z,0.80
2022-12-28T18:22:23.601Z,0.80
2022-12-28T18:24:51.282Z,0.80
2022-12-28T18:27:18.372Z,0.80
2022-12-28T18:29:45.986Z,0.80
2022-12-28T18:32:13.248Z,0.80
2022-12-28T18:34:40.505Z,0.80
2022-12-28T18:37:07.741Z,0.80
2022-12-28T18:39:35.840Z,0.70
2022-12-28T18:42:04.417Z,0.70
2022-12-28T18:44:31.723Z,0.80
2022-12-28T18:47:00.409Z,0.80
2022-12-28T18:49:29.418Z,0.70
2022-12-28T18:51:56.700Z,0.70
2022-12-28T18:54:24.175Z,0.80
2022-12-28T18:56:52.166Z,0.80
2022-12-28T18:59:19.410Z,0.70
2022-12-28T19:04:35.659Z,0.80
2022-12-28T19:07:03.263Z,0.80
2022-12-28T19:09:30.398Z,0.70
2022-12-28T19:11:58.066Z,0.70
2022-12-28T19:14:25.472Z,0.70
2022-12-28T19:16:52.729Z,0.80
2022-12-28T19:19:21.239Z,0.70
2022-12-28T19:21:52.324Z,0.80
2022-12-28T19:24:22.736Z,0.80
2022-12-28T19:26:51.178Z,0.70
2022-12-28T19:29:18.210Z,0.70
2022-12-28T19:31:45.536Z,0.80
2022-12-28T19:34:12.804Z,0.80
2022-12-28T19:36:39.956Z,0.80
2022-12-28T19:39:07.192Z,0.80
2022-12-28T19:41:35.788Z,0.80
2022-12-28T19:44:03.055Z,0.80
2022-12-28T19:46:32.989Z,0.80
2022-12-28T19:49:01.737Z,0.80
2022-12-28T19:51:31.696Z,0.80
2022-12-28T19:54:00.470Z,0.80
2022-12-28T19:56:28.089Z,0.80
2022-12-28T19:59:03.176Z,0.80
2022-12-28T20:01:33.283Z,0.90
2022-12-28T20:04:00.745Z,0.80
2022-12-28T20:06:30.068Z,0.80
2022-12-28T20:09:01.362Z,0.90
2022-12-28T20:11:29.988Z,0.90
2022-12-28T20:13:59.565Z,0.90
2022-12-28T20:16:29.097Z,0.80
2022-12-28T20:18:56.468Z,0.80
2022-12-28T20:21:25.237Z,0.90
2022-12-28T20:23:54.052Z,0.90
2022-12-28T20:26:23.028Z,0.90
2022-12-28T20:28:52.038Z,0.90
2022-12-28T20:31:19.366Z,0.90
2022-12-28T20:33:47.353Z,0.90
2022-12-28T20:36:23.279Z,1.00
2022-12-28T20:38:51.523Z,1.00
2022-12-28T20:41:42.420Z,1.00
2022-12-28T20:44:21.182Z,1.00
2022-12-28T20:46:48.761Z,1.00
2022-12-28T20:49:16.032Z,1.00
2022-12-28T20:51:43.393Z,1.00
2022-12-28T20:54:11.179Z,1.10
2022-12-28T20:56:38.877Z,1.10
2022-12-28T20:59:06.371Z,1.10
2022-12-28T21:01:36.194Z,1.10
2022-12-28T21:04:04.063Z,1.10
2022-12-28T21:06:31.384Z,1.10
2022-12-28T21:08:58.867Z,1.10
2022-12-28T21:11:26.177Z,1.10
2022-12-28T21:13:53.453Z,1.20
2022-12-28T21:16:20.905Z,1.20
2022-12-28T21:18:50.763Z,1.20
2022-12-28T21:21:19.783Z,1.20
2022-12-28T21:23:46.915Z,1.20
2022-12-28T21:26:16.566Z,1.20
2022-12-28T21:28:44.335Z,1.20
2022-12-28T21:31:12.154Z,1.20
2022-12-28T21:33:40.114Z,1.20
2022-12-28T21:36:11.565Z,1.20
2022-12-28T21:38:40.285Z,1.20
2022-12-28T21:41:13.083Z,1.20
2022-12-28T21:43:40.996Z,1.20
2022-12-28T21:46:08.226Z,1.20
2022-12-28T21:48:37.383Z,1.20
2022-12-28T21:51:28.836Z,1.20
2022-12-28T21:53:56.257Z,1.20
2022-12-28T21:56:23.782Z,1.20
2022-12-28T21:58:51.298Z,1.20
2022-12-28T22:01:37.078Z,1.20
2022-12-28T22:04:23.222Z,1.20
2022-12-28T22:06:50.440Z,1.20
2022-12-28T22:09:36.177Z,1.20
2022-12-28T22:12:21.895Z,1.20
2022-12-28T22:14:49.188Z,1.20
2022-12-28T22:17:16.787Z,1.10
2022-12-28T22:19:43.937Z,1.10
2022-12-28T22:22:11.245Z,1.10
2022-12-28T22:24:38.423Z,1.10
2022-12-28T22:27:05.534Z,1.10
2022-12-28T22:29:32.732Z,1.10
2022-12-28T22:32:00.001Z,1.10
2022-12-28T22:34:27.205Z,1.10
2022-12-28T22:36:54.463Z,1.00
2022-12-28T22:39:21.762Z,1.00
2022-12-28T22:41:48.920Z,1.00
2022-12-28T22:44:16.144Z,1.00
2022-12-28T22:46:43.384Z,1.00
2022-12-28T22:49:10.579Z,1.00
2022-12-28T22:51:37.769Z,1.00
2022-12-28T22:54:05.078Z,1.00
2022-12-28T22:56:32.277Z,1.00
2022-12-28T22:59:04.233Z,1.00
2022-12-28T23:01:35.283Z,1.00
2022-12-28T23:04:02.363Z,1.00
2022-12-28T23:06:29.577Z,1.00
2022-12-28T23:08:56.763Z,1.00
2022-12-28T23:11:42.301Z,1.00
2022-12-28T23:14:36.318Z,1.00
2022-12-28T23:17:09.279Z,1.00
2022-12-28T23:19:55.683Z,1.00
2022-12-28T23:22:45.779Z,1.00
2022-12-28T23:25:34.770Z,1.00
2022-12-28T23:28:03.530Z,1.00
2022-12-28T23:30:30.849Z,1.00
2022-12-28T23:32:58.276Z,1.00
2022-12-28T23:35:26.663Z,1.00
2022-12-28T23:37:54.259Z,1.00
2022-12-28T23:40:22.693Z,1.00
2022-12-28T23:42:50.206Z,1.00
2022-12-28T23:45:18.865Z,1.10
2022-12-28T23:47:46.770Z,1.00
2022-12-28T23:50:15.890Z,1.10
2022-12-28T23:52:43.412Z,1.00
2022-12-28T23:55:11.017Z,1.10
2022-12-28T23:57:38.554Z,1.00
